Time;durP1;ratioP1;P1;durP2;ratioP2;P2;SDS_P1;SDS_P2;PMS_P1;PMS_P2;Temp;Humidity;BMP_temperature;BMP_pressure;BME280_temperature;BME280_humidity;BME280_pressure;Samples;Min_cycle;Max_cycle;Signal;HPM_P1;HPM_P2
2022/04/18 06:01:48;;;;;;;8.70;4.97;;;;;;;6.37;53.05;100500.06;31237853;27;96820;-67
2022/04/18 06:16:48;;;;;;;11.02;6.20;;;;;;;7.64;51.41;100501.91;31076938;28;96726;-67
2022/04/18 06:31:51;;;;;;;12.93;6.03;;;;;;;8.50;48.39;100505.31;31075705;28;97203;-75
2022/04/18 06:46:51;;;;;;;11.40;6.33;;;;;;;9.01;47.08;100506.53;31074682;28;97501;-77
2022/04/18 07:01:52;;;;;;;13.77;6.60;;;;;;;10.05;45.09;100498.75;31051878;28;96698;-67
2022/04/18 07:16:53;;;;;;;12.50;8.30;;;;;;;10.70;41.38;100494.66;30987428;28;97347;-68
2022/04/18 07:31:53;;;;;;;13.70;7.78;;;;;;;11.95;38.82;100491.78;30979670;28;96909;-69
2022/04/18 07:46:54;;;;;;;13.45;8.20;;;;;;;13.01;35.63;100501.09;30976393;28;96715;-68
2022/04/18 08:01:54;;;;;;;15.73;6.78;;;;;;;13.90;31.73;100490.75;30972722;28;97220;-69
2022/04/18 08:16:54;;;;;;;14.32;6.40;;;;;;;15.12;29.95;100484.75;30972725;28;117329;-68
2022/04/18 08:31:55;;;;;;;9.00;5.22;;;;;;;16.72;27.48;100481.31;30944773;28;99769;-78
2022/04/18 08:46:58;;;;;;;7.88;4.75;;;;;;;18.02;26.29;100472.00;31043295;28;98346;-69
2022/04/18 09:01:59;;;;;;;6.30;4.10;;;;;;;21.08;23.47;100463.91;31043619;28;97983;-71
2022/04/18 09:17:00;;;;;;;5.97;3.57;;;;;;;28.78;13.63;100451.31;31040382;28;97196;-80
2022/04/18 09:32:06;;;;;;;3.97;2.07;;;;;;;26.90;15.59;100424.09;31045385;28;97800;-85
2022/04/18 09:47:06;;;;;;;5.53;2.10;;;;;;;28.87;12.64;100423.00;31037986;28;97039;-82
2022/04/18 10:02:12;;;;;;;3.43;2.33;;;;;;;30.70;11.45;100411.19;31014488;28;97297;-83
2022/04/18 10:17:16;;;;;;;3.43;2.00;;;;;;;38.41;7.42;100404.28;30959861;28;97142;-71
2022/04/18 10:32:22;;;;;;;4.10;2.80;;;;;;;35.11;8.22;100384.78;30894206;28;96873;-70
2022/04/18 10:47:22;;;;;;;3.50;2.47;;;;;;;35.31;8.78;100372.16;30921267;28;97048;-73
2022/04/18 11:02:44;;;;;;;3.92;2.53;;;;;;;28.83;11.15;100371.78;30913250;28;96884;-71
2022/04/18 11:17:44;;;;;;;4.97;2.43;;;;;;;24.95;13.28;100364.94;30953424;28;98520;-76
2022/04/18 11:32:46;;;;;;;5.03;2.80;;;;;;;23.06;14.70;100353.56;30986923;28;97475;-79
2022/04/18 11:47:48;;;;;;;4.33;2.63;;;;;;;22.29;15.73;100334.97;30975421;28;97139;-78
2022/04/18 12:18:11;;;;;;;4.67;2.80;;;;;;;23.99;14.38;100302.03;30981654;28;97876;-76
2022/04/18 12:33:19;;;;;;;4.03;2.50;;;;;;;22.25;15.11;100284.97;30976329;28;96774;-74
2022/04/18 12:48:21;;;;;;;4.60;2.97;;;;;;;23.06;14.84;100266.63;30972204;28;97555;-74
2022/04/18 13:03:27;;;;;;;3.57;2.60;;;;;;;22.68;15.67;100250.09;30971197;28;96764;-75
2022/04/18 13:18:27;;;;;;;4.00;2.80;;;;;;;22.81;15.66;100235.34;30969913;28;97893;-78
2022/04/18 13:33:28;;;;;;;5.63;2.90;;;;;;;21.62;16.44;100217.16;30888226;28;96779;-79
2022/04/18 13:48:28;;;;;;;3.38;2.42;;;;;;;20.34;17.38;100219.81;30851964;28;101297;-72
2022/04/18 14:03:29;;;;;;;5.50;2.60;;;;;;;19.01;18.39;100199.03;30852705;28;96826;-71
2022/04/18 16:37:53;;;;;;;4.93;3.43;;;;;;;12.79;26.12;100104.41;31086942;28;96800;-71
2022/04/18 16:52:54;;;;;;;5.28;3.05;;;;;;;12.48;26.22;100108.13;31068627;28;97525;-71
2022/04/18 17:07:54;;;;;;;7.03;2.90;;;;;;;11.68;26.97;100106.88;31068745;28;97280;-73
2022/04/18 17:22:55;;;;;;;4.75;3.15;;;;;;;10.96;28.10;100097.38;31067282;28;96730;-73
2022/04/18 17:37:55;;;;;;;4.75;2.97;;;;;;;10.23;28.96;100117.94;31044546;28;97877;-71
2022/04/18 17:52:55;;;;;;;4.80;2.63;;;;;;;9.59;29.37;100106.16;30980520;28;96894;-70
2022/04/18 18:07:56;;;;;;;6.05;2.97;;;;;;;9.35;29.68;100114.13;30963562;28;97188;-71
2022/04/18 18:22:57;;;;;;;8.02;3.53;;;;;;;9.08;30.23;100114.25;30863851;28;96965;-74
2022/04/18 18:37:57;;;;;;;5.97;2.90;;;;;;;8.90;30.93;100111.72;30941834;28;97312;-75
